sensor_id;sensor_type;location;lat;lon;timestamp;P1;durP1;ratioP1;P2;durP2;ratioP2
43670;SDS011;29267;50.906;7.248;2023-04-16T00:02:17;21.48;;;9.55;;
43670;SDS011;29267;50.906;7.248;2023-04-16T00:04:43;17.35;;;8.98;;
43670;SDS011;29267;50.906;7.248;2023-04-16T00:07:09;20.55;;;7.68;;
43670;SDS011;29267;50.906;7.248;2023-04-16T00:09:34;23.58;;;9.82;;
43670;SDS011;29267;50.906;7.248;2023-04-16T00:12:00;18.38;;;8.75;;
43670;SDS011;29267;50.906;7.248;2023-04-16T00:14:26;23.65;;;9.55;;
43670;SDS011;29267;50.906;7.248;2023-04-16T00:16:51;20.23;;;11.00;;
43670;SDS011;29267;50.906;7.248;2023-04-16T00:19:17;20.52;;;10.75;;
43670;SDS011;29267;50.906;7.248;2023-04-16T00:21:42;23.60;;;11.60;;
43670;SDS011;29267;50.906;7.248;2023-04-16T00:24:08;23.73;;;10.93;;
43670;SDS011;29267;50.906;7.248;2023-04-16T00:26:33;28.77;;;11.65;;
43670;SDS011;29267;50.906;7.248;2023-04-16T00:28:59;21.02;;;10.45;;
43670;SDS011;29267;50.906;7.248;2023-04-16T00:31:28;32.45;;;12.25;;
43670;SDS011;29267;50.906;7.248;2023-04-16T00:33:56;27.13;;;13.02;;
43670;SDS011;29267;50.906;7.248;2023-04-16T00:36:23;25.13;;;13.02;;
43670;SDS011;29267;50.906;7.248;2023-04-16T00:38:49;31.95;;;13.48;;
43670;SDS011;29267;50.906;7.248;2023-04-16T00:41:15;28.80;;;13.10;;
43670;SDS011;29267;50.906;7.248;2023-04-16T00:43:41;33.72;;;16.35;;
43670;SDS011;29267;50.906;7.248;2023-04-16T00:46:07;32.85;;;16.83;;
43670;SDS011;29267;50.906;7.248;2023-04-16T00:48:34;44.20;;;18.35;;
43670;SDS011;29267;50.906;7.248;2023-04-16T00:51:03;33.92;;;16.60;;
43670;SDS011;29267;50.906;7.248;2023-04-16T00:53:30;41.97;;;20.33;;
43670;SDS011;29267;50.906;7.248;2023-04-16T00:55:56;42.40;;;21.00;;
43670;SDS011;29267;50.906;7.248;2023-04-16T00:58:22;58.83;;;23.88;;
43670;SDS011;29267;50.906;7.248;2023-04-16T01:00:49;57.55;;;24.92;;
43670;SDS011;29267;50.906;7.248;2023-04-16T01:03:14;58.78;;;25.55;;
43670;SDS011;29267;50.906;7.248;2023-04-16T01:05:40;63.13;;;24.50;;
43670;SDS011;29267;50.906;7.248;2023-04-16T01:08:06;64.03;;;27.10;;
43670;SDS011;29267;50.906;7.248;2023-04-16T01:10:42;64.30;;;26.00;;
43670;SDS011;29267;50.906;7.248;2023-04-16T01:13:08;61.42;;;27.10;;
43670;SDS011;29267;50.906;7.248;2023-04-16T01:15:33;76.03;;;29.13;;
43670;SDS011;29267;50.906;7.248;2023-04-16T01:17:59;64.60;;;28.25;;
43670;SDS011;29267;50.906;7.248;2023-04-16T01:20:25;67.85;;;28.80;;
43670;SDS011;29267;50.906;7.248;2023-04-16T01:22:50;67.43;;;28.48;;
43670;SDS011;29267;50.906;7.248;2023-04-16T01:25:16;62.65;;;27.75;;
43670;SDS011;29267;50.906;7.248;2023-04-16T01:27:42;66.38;;;27.10;;
43670;SDS011;29267;50.906;7.248;2023-04-16T01:30:07;69.28;;;27.23;;
43670;SDS011;29267;50.906;7.248;2023-04-16T01:32:33;71.10;;;29.15;;
43670;SDS011;29267;50.906;7.248;2023-04-16T01:34:59;61.30;;;26.67;;
43670;SDS011;29267;50.906;7.248;2023-04-16T01:37:25;72.20;;;29.35;;
43670;SDS011;29267;50.906;7.248;2023-04-16T01:39:51;69.00;;;28.25;;
43670;SDS011;29267;50.906;7.248;2023-04-16T01:42:16;70.57;;;26.67;;
43670;SDS011;29267;50.906;7.248;2023-04-16T01:44:42;71.57;;;28.23;;
43670;SDS011;29267;50.906;7.248;2023-04-16T01:47:07;57.78;;;26.38;;
43670;SDS011;29267;50.906;7.248;2023-04-16T01:49:33;60.90;;;25.52;;
43670;SDS011;29267;50.906;7.248;2023-04-16T01:51:59;59.40;;;25.85;;
43670;SDS011;29267;50.906;7.248;2023-04-16T01:54:24;56.55;;;24.42;;
43670;SDS011;29267;50.906;7.248;2023-04-16T01:56:50;67.57;;;25.75;;
43670;SDS011;29267;50.906;7.248;2023-04-16T01:59:16;70.10;;;28.88;;
43670;SDS011;29267;50.906;7.248;2023-04-16T02:01:41;60.15;;;25.42;;
43670;SDS011;29267;50.906;7.248;2023-04-16T02:04:07;58.85;;;24.55;;
43670;SDS011;29267;50.906;7.248;2023-04-16T02:06:33;51.35;;;24.30;;
43670;SDS011;29267;50.906;7.248;2023-04-16T02:08:59;64.03;;;25.20;;
43670;SDS011;29267;50.906;7.248;2023-04-16T02:11:24;55.83;;;23.67;;
43670;SDS011;29267;50.906;7.248;2023-04-16T02:13:50;59.00;;;24.15;;
43670;SDS011;29267;50.906;7.248;2023-04-16T02:16:16;46.60;;;22.05;;
43670;SDS011;29267;50.906;7.248;2023-04-16T02:18:41;64.70;;;23.02;;
43670;SDS011;29267;50.906;7.248;2023-04-16T02:21:07;45.97;;;22.08;;
43670;SDS011;29267;50.906;7.248;2023-04-16T02:23:32;50.70;;;23.08;;
43670;SDS011;29267;50.906;7.248;2023-04-16T02:25:58;55.90;;;23.40;;
43670;SDS011;29267;50.906;7.248;2023-04-16T02:28:24;46.30;;;20.52;;
43670;SDS011;29267;50.906;7.248;2023-04-16T02:30:50;39.80;;;20.55;;
43670;SDS011;29267;50.906;7.248;2023-04-16T02:33:16;50.03;;;20.77;;
43670;SDS011;29267;50.906;7.248;2023-04-16T02:35:41;46.30;;;20.08;;
43670;SDS011;29267;50.906;7.248;2023-04-16T02:38:07;42.97;;;20.10;;
43670;SDS011;29267;50.906;7.248;2023-04-16T02:40:32;46.75;;;20.70;;
43670;SDS011;29267;50.906;7.248;2023-04-16T02:42:58;45.70;;;20.58;;
43670;SDS011;29267;50.906;7.248;2023-04-16T02:45:24;41.65;;;19.65;;
43670;SDS011;29267;50.906;7.248;2023-04-16T02:47:50;41.42;;;18.70;;
43670;SDS011;29267;50.906;7.248;2023-04-16T02:50:16;42.92;;;18.83;;
43670;SDS011;29267;50.906;7.248;2023-04-16T02:52:42;35.83;;;17.63;;
43670;SDS011;29267;50.906;7.248;2023-04-16T02:55:08;36.95;;;19.23;;
43670;SDS011;29267;50.906;7.248;2023-04-16T02:57:34;41.90;;;18.13;;
43670;SDS011;29267;50.906;7.248;2023-04-16T03:00:00;37.67;;;17.70;;
43670;SDS011;29267;50.906;7.248;2023-04-16T03:02:25;40.42;;;18.63;;
43670;SDS011;29267;50.906;7.248;2023-04-16T03:04:52;42.50;;;17.77;;
43670;SDS011;29267;50.906;7.248;2023-04-16T03:07:18;34.15;;;17.20;;
43670;SDS011;29267;50.906;7.248;2023-04-16T03:09:43;40.75;;;18.40;;
43670;SDS011;29267;50.906;7.248;2023-04-16T03:12:09;33.00;;;16.33;;
43670;SDS011;29267;50.906;7.248;2023-04-16T03:14:34;45.47;;;18.60;;
43670;SDS011;29267;50.906;7.248;2023-04-16T03:17:00;36.03;;;14.98;;
43670;SDS011;29267;50.906;7.248;2023-04-16T03:19:26;40.53;;;18.42;;
43670;SDS011;29267;50.906;7.248;2023-04-16T03:21:51;40.67;;;17.33;;
43670;SDS011;29267;50.906;7.248;2023-04-16T03:24:17;49.88;;;18.55;;
43670;SDS011;29267;50.906;7.248;2023-04-16T03:26:42;38.58;;;19.08;;
43670;SDS011;29267;50.906;7.248;2023-04-16T03:29:08;48.00;;;20.92;;
43670;SDS011;29267;50.906;7.248;2023-04-16T03:31:34;45.45;;;20.73;;
43670;SDS011;29267;50.906;7.248;2023-04-16T03:33:59;49.67;;;22.02;;
43670;SDS011;29267;50.906;7.248;2023-04-16T03:36:25;67.95;;;23.08;;
43670;SDS011;29267;50.906;7.248;2023-04-16T03:38:54;56.33;;;23.50;;
43670;SDS011;29267;50.906;7.248;2023-04-16T03:41:19;69.05;;;24.25;;
43670;SDS011;29267;50.906;7.248;2023-04-16T03:43:45;66.45;;;26.55;;
43670;SDS011;29267;50.906;7.248;2023-04-16T03:46:11;64.80;;;27.33;;
43670;SDS011;29267;50.906;7.248;2023-04-16T03:48:36;67.65;;;26.90;;
43670;SDS011;29267;50.906;7.248;2023-04-16T03:51:02;80.25;;;28.52;;
43670;SDS011;29267;50.906;7.248;2023-04-16T03:53:28;57.88;;;28.08;;
43670;SDS011;29267;50.906;7.248;2023-04-16T03:55:53;71.15;;;28.08;;
43670;SDS011;29267;50.906;7.248;2023-04-16T03:58:19;69.53;;;28.13;;
43670;SDS011;29267;50.906;7.248;2023-04-16T04:00:45;79.85;;;28.67;;
43670;SDS011;29267;50.906;7.248;2023-04-16T04:03:11;73.00;;;29.15;;
43670;SDS011;29267;50.906;7.248;2023-04-16T04:05:40;71.03;;;30.13;;
43670;SDS011;29267;50.906;7.248;2023-04-16T04:08:06;82.68;;;29.27;;
43670;SDS011;29267;50.906;7.248;2023-04-16T04:10:33;81.95;;;31.23;;
43670;SDS011;29267;50.906;7.248;2023-04-16T04:12:59;79.75;;;30.73;;
43670;SDS011;29267;50.906;7.248;2023-04-16T04:15:26;78.05;;;32.72;;
43670;SDS011;29267;50.906;7.248;2023-04-16T04:17:52;79.75;;;31.83;;
43670;SDS011;29267;50.906;7.248;2023-04-16T04:20:17;84.57;;;31.33;;
43670;SDS011;29267;50.906;7.248;2023-04-16T04:22:43;73.32;;;29.15;;
43670;SDS011;29267;50.906;7.248;2023-04-16T04:25:09;69.93;;;27.83;;
43670;SDS011;29267;50.906;7.248;2023-04-16T04:27:35;78.82;;;26.52;;
43670;SDS011;29267;50.906;7.248;2023-04-16T04:30:01;72.15;;;27.55;;
43670;SDS011;29267;50.906;7.248;2023-04-16T04:32:28;70.68;;;25.83;;
43670;SDS011;29267;50.906;7.248;2023-04-16T04:34:54;61.90;;;26.35;;
43670;SDS011;29267;50.906;7.248;2023-04-16T04:37:19;71.05;;;26.27;;
43670;SDS011;29267;50.906;7.248;2023-04-16T04:39:45;66.80;;;26.80;;
43670;SDS011;29267;50.906;7.248;2023-04-16T04:42:10;67.68;;;25.40;;
43670;SDS011;29267;50.906;7.248;2023-04-16T04:44:36;56.15;;;25.33;;
43670;SDS011;29267;50.906;7.248;2023-04-16T04:47:02;57.45;;;25.02;;
43670;SDS011;29267;50.906;7.248;2023-04-16T04:49:27;59.33;;;24.23;;
43670;SDS011;29267;50.906;7.248;2023-04-16T04:51:54;55.35;;;23.20;;
43670;SDS011;29267;50.906;7.248;2023-04-16T04:54:20;59.40;;;24.02;;
43670;SDS011;29267;50.906;7.248;2023-04-16T04:56:45;54.30;;;23.27;;
43670;SDS011;29267;50.906;7.248;2023-04-16T04:59:11;58.05;;;25.45;;
43670;SDS011;29267;50.906;7.248;2023-04-16T05:01:37;53.08;;;23.33;;
43670;SDS011;29267;50.906;7.248;2023-04-16T05:04:02;74.47;;;25.17;;
43670;SDS011;29267;50.906;7.248;2023-04-16T05:06:28;51.92;;;22.30;;
43670;SDS011;29267;50.906;7.248;2023-04-16T05:08:54;50.13;;;21.42;;
43670;SDS011;29267;50.906;7.248;2023-04-16T05:11:19;52.35;;;21.73;;
43670;SDS011;29267;50.906;7.248;2023-04-16T05:13:45;48.05;;;21.88;;
43670;SDS011;29267;50.906;7.248;2023-04-16T05:16:11;53.65;;;21.63;;
43670;SDS011;29267;50.906;7.248;2023-04-16T05:18:36;53.67;;;23.40;;
43670;SDS011;29267;50.906;7.248;2023-04-16T05:21:02;46.38;;;21.58;;
43670;SDS011;29267;50.906;7.248;2023-04-16T05:23:28;52.42;;;22.38;;
43670;SDS011;29267;50.906;7.248;2023-04-16T05:25:54;53.05;;;22.00;;
43670;SDS011;29267;50.906;7.248;2023-04-16T05:28:19;65.30;;;24.65;;
43670;SDS011;29267;50.906;7.248;2023-04-16T05:30:45;46.70;;;21.60;;
43670;SDS011;29267;50.906;7.248;2023-04-16T05:33:11;47.75;;;20.75;;
43670;SDS011;29267;50.906;7.248;2023-04-16T05:35:36;46.88;;;20.98;;
43670;SDS011;29267;50.906;7.248;2023-04-16T05:38:02;49.40;;;20.17;;
43670;SDS011;29267;50.906;7.248;2023-04-16T05:40:28;46.97;;;20.88;;
43670;SDS011;29267;50.906;7.248;2023-04-16T05:42:54;46.67;;;20.90;;
43670;SDS011;29267;50.906;7.248;2023-04-16T05:45:20;65.28;;;21.60;;
43670;SDS011;29267;50.906;7.248;2023-04-16T05:47:46;44.20;;;20.08;;
43670;SDS011;29267;50.906;7.248;2023-04-16T05:50:11;47.00;;;21.50;;
43670;SDS011;29267;50.906;7.248;2023-04-16T05:52:37;47.58;;;20.75;;
43670;SDS011;29267;50.906;7.248;2023-04-16T05:55:03;52.00;;;22.10;;
43670;SDS011;29267;50.906;7.248;2023-04-16T05:57:29;46.47;;;22.33;;
43670;SDS011;29267;50.906;7.248;2023-04-16T05:59:54;49.72;;;21.13;;
43670;SDS011;29267;50.906;7.248;2023-04-16T06:02:20;49.17;;;20.23;;
43670;SDS011;29267;50.906;7.248;2023-04-16T06:04:45;41.85;;;18.85;;
43670;SDS011;29267;50.906;7.248;2023-04-16T06:07:11;45.28;;;19.92;;
43670;SDS011;29267;50.906;7.248;2023-04-16T06:09:37;45.58;;;19.92;;
43670;SDS011;29267;50.906;7.248;2023-04-16T06:12:02;47.35;;;20.17;;
43670;SDS011;29267;50.906;7.248;2023-04-16T06:14:28;46.25;;;21.35;;
43670;SDS011;29267;50.906;7.248;2023-04-16T06:16:54;54.15;;;20.92;;
43670;SDS011;29267;50.906;7.248;2023-04-16T06:19:20;51.20;;;22.60;;
43670;SDS011;29267;50.906;7.248;2023-04-16T06:21:45;58.17;;;21.73;;
43670;SDS011;29267;50.906;7.248;2023-04-16T06:24:11;46.47;;;21.52;;
43670;SDS011;29267;50.906;7.248;2023-04-16T06:26:37;43.42;;;19.98;;
43670;SDS011;29267;50.906;7.248;2023-04-16T06:29:03;45.58;;;20.45;;
43670;SDS011;29267;50.906;7.248;2023-04-16T06:31:28;48.42;;;20.88;;
43670;SDS011;29267;50.906;7.248;2023-04-16T06:33:55;49.58;;;20.27;;
43670;SDS011;29267;50.906;7.248;2023-04-16T06:36:20;53.28;;;21.05;;
43670;SDS011;29267;50.906;7.248;2023-04-16T06:38:46;49.50;;;19.77;;
43670;SDS011;29267;50.906;7.248;2023-04-16T06:41:12;51.40;;;20.02;;
43670;SDS011;29267;50.906;7.248;2023-04-16T06:43:38;48.13;;;20.63;;
43670;SDS011;29267;50.906;7.248;2023-04-16T06:46:04;55.75;;;21.55;;
43670;SDS011;29267;50.906;7.248;2023-04-16T06:48:29;50.78;;;20.70;;
43670;SDS011;29267;50.906;7.248;2023-04-16T06:50:55;48.10;;;21.85;;
43670;SDS011;29267;50.906;7.248;2023-04-16T06:53:21;51.78;;;21.20;;
43670;SDS011;29267;50.906;7.248;2023-04-16T06:55:47;50.75;;;19.95;;
43670;SDS011;29267;50.906;7.248;2023-04-16T06:58:13;52.08;;;22.75;;
43670;SDS011;29267;50.906;7.248;2023-04-16T07:00:38;60.17;;;24.15;;
43670;SDS011;29267;50.906;7.248;2023-04-16T07:03:04;53.50;;;23.05;;
43670;SDS011;29267;50.906;7.248;2023-04-16T07:05:30;58.53;;;24.15;;
43670;SDS011;29267;50.906;7.248;2023-04-16T07:07:55;53.42;;;24.15;;
43670;SDS011;29267;50.906;7.248;2023-04-16T07:10:21;61.95;;;25.70;;
43670;SDS011;29267;50.906;7.248;2023-04-16T07:12:47;56.78;;;23.33;;
43670;SDS011;29267;50.906;7.248;2023-04-16T07:15:13;56.70;;;22.08;;
43670;SDS011;29267;50.906;7.248;2023-04-16T07:17:38;57.65;;;24.08;;
43670;SDS011;29267;50.906;7.248;2023-04-16T07:20:04;71.30;;;26.25;;
43670;SDS011;29267;50.906;7.248;2023-04-16T07:22:30;57.20;;;24.00;;
43670;SDS011;29267;50.906;7.248;2023-04-16T07:24:56;58.90;;;22.05;;
43670;SDS011;29267;50.906;7.248;2023-04-16T07:27:21;61.08;;;24.15;;
43670;SDS011;29267;50.906;7.248;2023-04-16T07:29:47;64.18;;;24.45;;
43670;SDS011;29267;50.906;7.248;2023-04-16T07:32:14;56.20;;;23.77;;
43670;SDS011;29267;50.906;7.248;2023-04-16T07:34:40;66.85;;;25.73;;
43670;SDS011;29267;50.906;7.248;2023-04-16T07:37:05;57.22;;;24.65;;
43670;SDS011;29267;50.906;7.248;2023-04-16T07:39:31;64.90;;;27.42;;
43670;SDS011;29267;50.906;7.248;2023-04-16T07:41:56;63.70;;;26.98;;
43670;SDS011;29267;50.906;7.248;2023-04-16T07:44:22;56.60;;;25.48;;
43670;SDS011;29267;50.906;7.248;2023-04-16T07:46:47;57.80;;;25.60;;
43670;SDS011;29267;50.906;7.248;2023-04-16T07:49:13;61.53;;;26.85;;
43670;SDS011;29267;50.906;7.248;2023-04-16T07:51:39;62.83;;;27.17;;
43670;SDS011;29267;50.906;7.248;2023-04-16T07:54:05;59.95;;;27.27;;
43670;SDS011;29267;50.906;7.248;2023-04-16T07:56:30;61.90;;;28.45;;
43670;SDS011;29267;50.906;7.248;2023-04-16T07:58:56;61.80;;;26.90;;
43670;SDS011;29267;50.906;7.248;2023-04-16T08:01:21;65.68;;;27.73;;
43670;SDS011;29267;50.906;7.248;2023-04-16T08:03:47;73.22;;;29.70;;
43670;SDS011;29267;50.906;7.248;2023-04-16T08:06:13;55.90;;;26.25;;
43670;SDS011;29267;50.906;7.248;2023-04-16T08:08:38;61.17;;;28.17;;
43670;SDS011;29267;50.906;7.248;2023-04-16T08:11:04;60.15;;;27.38;;
43670;SDS011;29267;50.906;7.248;2023-04-16T08:13:30;64.43;;;26.88;;
43670;SDS011;29267;50.906;7.248;2023-04-16T08:15:55;60.67;;;26.00;;
43670;SDS011;29267;50.906;7.248;2023-04-16T08:18:21;63.13;;;26.60;;
43670;SDS011;29267;50.906;7.248;2023-04-16T08:20:46;56.22;;;26.92;;
43670;SDS011;29267;50.906;7.248;2023-04-16T08:23:12;59.72;;;28.38;;
43670;SDS011;29267;50.906;7.248;2023-04-16T08:25:37;47.70;;;25.63;;
43670;SDS011;29267;50.906;7.248;2023-04-16T08:28:03;59.72;;;24.88;;
43670;SDS011;29267;50.906;7.248;2023-04-16T08:30:29;52.92;;;25.88;;
43670;SDS011;29267;50.906;7.248;2023-04-16T08:32:55;46.92;;;23.90;;
43670;SDS011;29267;50.906;7.248;2023-04-16T08:35:20;50.85;;;25.13;;
43670;SDS011;29267;50.906;7.248;2023-04-16T08:37:47;49.42;;;25.45;;
43670;SDS011;29267;50.906;7.248;2023-04-16T08:40:12;49.08;;;23.33;;
43670;SDS011;29267;50.906;7.248;2023-04-16T08:42:39;47.53;;;24.90;;
43670;SDS011;29267;50.906;7.248;2023-04-16T08:45:13;54.78;;;24.25;;
43670;SDS011;29267;50.906;7.248;2023-04-16T08:47:40;48.13;;;23.50;;
43670;SDS011;29267;50.906;7.248;2023-04-16T08:50:10;53.35;;;24.20;;
43670;SDS011;29267;50.906;7.248;2023-04-16T08:52:44;42.45;;;22.13;;
43670;SDS011;29267;50.906;7.248;2023-04-16T08:55:15;46.05;;;23.75;;
43670;SDS011;29267;50.906;7.248;2023-04-16T08:57:46;44.97;;;22.00;;
43670;SDS011;29267;50.906;7.248;2023-04-16T09:00:13;45.30;;;22.52;;
43670;SDS011;29267;50.906;7.248;2023-04-16T09:02:40;37.45;;;21.02;;
43670;SDS011;29267;50.906;7.248;2023-04-16T09:05:06;48.97;;;23.45;;
43670;SDS011;29267;50.906;7.248;2023-04-16T09:07:33;44.28;;;21.30;;
43670;SDS011;29267;50.906;7.248;2023-04-16T09:10:00;36.60;;;18.20;;
43670;SDS011;29267;50.906;7.248;2023-04-16T09:12:26;43.42;;;20.58;;
43670;SDS011;29267;50.906;7.248;2023-04-16T09:14:51;39.13;;;19.20;;
43670;SDS011;29267;50.906;7.248;2023-04-16T09:17:17;35.22;;;17.40;;
43670;SDS011;29267;50.906;7.248;2023-04-16T09:19:44;38.35;;;19.30;;
43670;SDS011;29267;50.906;7.248;2023-04-16T09:22:10;37.33;;;18.52;;
43670;SDS011;29267;50.906;7.248;2023-04-16T09:24:36;35.30;;;18.90;;
43670;SDS011;29267;50.906;7.248;2023-04-16T09:27:02;38.35;;;19.35;;
43670;SDS011;29267;50.906;7.248;2023-04-16T09:29:35;39.08;;;19.25;;
43670;SDS011;29267;50.906;7.248;2023-04-16T09:32:05;42.85;;;18.83;;
43670;SDS011;29267;50.906;7.248;2023-04-16T09:34:32;35.95;;;18.95;;
43670;SDS011;29267;50.906;7.248;2023-04-16T09:37:17;40.13;;;19.10;;
43670;SDS011;29267;50.906;7.248;2023-04-16T09:39:43;34.08;;;18.02;;
43670;SDS011;29267;50.906;7.248;2023-04-16T09:42:10;38.38;;;17.50;;
43670;SDS011;29267;50.906;7.248;2023-04-16T09:44:36;34.75;;;18.48;;
43670;SDS011;29267;50.906;7.248;2023-04-16T09:47:07;32.97;;;17.48;;
43670;SDS011;29267;50.906;7.248;2023-04-16T09:49:34;31.35;;;17.60;;
43670;SDS011;29267;50.906;7.248;2023-04-16T09:52:07;36.15;;;19.15;;
43670;SDS011;29267;50.906;7.248;2023-04-16T09:54:51;29.45;;;17.08;;
43670;SDS011;29267;50.906;7.248;2023-04-16T09:57:21;39.08;;;18.23;;
43670;SDS011;29267;50.906;7.248;2023-04-16T09:59:51;28.20;;;16.33;;
43670;SDS011;29267;50.906;7.248;2023-04-16T10:02:28;32.20;;;16.27;;
43670;SDS011;29267;50.906;7.248;2023-04-16T10:04:54;33.22;;;18.02;;
43670;SDS011;29267;50.906;7.248;2023-04-16T10:07:21;33.85;;;17.63;;
43670;SDS011;29267;50.906;7.248;2023-04-16T10:09:48;28.70;;;17.38;;
43670;SDS011;29267;50.906;7.248;2023-04-16T10:12:14;38.60;;;17.88;;
43670;SDS011;29267;50.906;7.248;2023-04-16T10:14:40;26.83;;;16.13;;
43670;SDS011;29267;50.906;7.248;2023-04-16T10:17:09;36.03;;;17.05;;
43670;SDS011;29267;50.906;7.248;2023-04-16T10:19:35;34.00;;;18.15;;
43670;SDS011;29267;50.906;7.248;2023-04-16T10:22:01;37.20;;;15.75;;
43670;SDS011;29267;50.906;7.248;2023-04-16T10:24:28;25.92;;;15.27;;
43670;SDS011;29267;50.906;7.248;2023-04-16T10:26:55;30.38;;;16.05;;
43670;SDS011;29267;50.906;7.248;2023-04-16T10:29:22;32.08;;;16.48;;
43670;SDS011;29267;50.906;7.248;2023-04-16T10:31:49;28.55;;;15.60;;
43670;SDS011;29267;50.906;7.248;2023-04-16T10:34:16;29.25;;;16.05;;
43670;SDS011;29267;50.906;7.248;2023-04-16T10:36:42;28.67;;;13.65;;
43670;SDS011;29267;50.906;7.248;2023-04-16T10:39:15;28.60;;;14.95;;
43670;SDS011;29267;50.906;7.248;2023-04-16T10:41:43;30.00;;;16.15;;
43670;SDS011;29267;50.906;7.248;2023-04-16T10:44:09;28.65;;;15.48;;
43670;SDS011;29267;50.906;7.248;2023-04-16T10:46:38;25.77;;;14.98;;
43670;SDS011;29267;50.906;7.248;2023-04-16T10:51:59;27.80;;;16.35;;
43670;SDS011;29267;50.906;7.248;2023-04-16T10:54:31;25.23;;;14.05;;
43670;SDS011;29267;50.906;7.248;2023-04-16T10:57:07;32.00;;;15.98;;
43670;SDS011;29267;50.906;7.248;2023-04-16T10:59:35;31.75;;;15.95;;
43670;SDS011;29267;50.906;7.248;2023-04-16T11:02:07;27.95;;;15.65;;
43670;SDS011;29267;50.906;7.248;2023-04-16T11:04:37;26.50;;;15.00;;
43670;SDS011;29267;50.906;7.248;2023-04-16T11:15:03;25.25;;;12.48;;
43670;SDS011;29267;50.906;7.248;2023-04-16T11:17:38;27.13;;;13.45;;
43670;SDS011;29267;50.906;7.248;2023-04-16T11:20:09;26.42;;;14.32;;
43670;SDS011;29267;50.906;7.248;2023-04-16T11:22:39;21.92;;;13.65;;
43670;SDS011;29267;50.906;7.248;2023-04-16T11:25:06;25.02;;;13.82;;
43670;SDS011;29267;50.906;7.248;2023-04-16T11:27:32;26.73;;;14.43;;
43670;SDS011;29267;50.906;7.248;2023-04-16T11:29:59;25.75;;;14.75;;
43670;SDS011;29267;50.906;7.248;2023-04-16T11:32:26;28.92;;;15.48;;
43670;SDS011;29267;50.906;7.248;2023-04-16T11:34:52;22.35;;;12.93;;
43670;SDS011;29267;50.906;7.248;2023-04-16T11:37:29;24.88;;;14.20;;
43670;SDS011;29267;50.906;7.248;2023-04-16T11:39:59;24.73;;;12.23;;
43670;SDS011;29267;50.906;7.248;2023-04-16T11:42:25;20.55;;;11.45;;
43670;SDS011;29267;50.906;7.248;2023-04-16T11:44:56;24.73;;;12.07;;
43670;SDS011;29267;50.906;7.248;2023-04-16T11:47:24;20.35;;;11.98;;
43670;SDS011;29267;50.906;7.248;2023-04-16T11:49:51;17.48;;;10.18;;
43670;SDS011;29267;50.906;7.248;2023-04-16T11:52:27;18.50;;;11.07;;
43670;SDS011;29267;50.906;7.248;2023-04-16T11:54:54;16.95;;;9.85;;
43670;SDS011;29267;50.906;7.248;2023-04-16T11:57:38;17.77;;;11.20;;
43670;SDS011;29267;50.906;7.248;2023-04-16T12:00:04;18.95;;;11.23;;
43670;SDS011;29267;50.906;7.248;2023-04-16T12:02:40;16.33;;;10.18;;
43670;SDS011;29267;50.906;7.248;2023-04-16T12:08:06;18.38;;;10.20;;
43670;SDS011;29267;50.906;7.248;2023-04-16T12:10:34;18.88;;;11.70;;
43670;SDS011;29267;50.906;7.248;2023-04-16T12:13:10;21.17;;;11.15;;
43670;SDS011;29267;50.906;7.248;2023-04-16T12:15:51;15.13;;;9.45;;
43670;SDS011;29267;50.906;7.248;2023-04-16T12:18:18;16.55;;;10.68;;
43670;SDS011;29267;50.906;7.248;2023-04-16T12:20:47;20.88;;;10.70;;
43670;SDS011;29267;50.906;7.248;2023-04-16T12:25:52;19.42;;;10.82;;
43670;SDS011;29267;50.906;7.248;2023-04-16T12:28:31;16.15;;;9.30;;
43670;SDS011;29267;50.906;7.248;2023-04-16T12:30:58;16.85;;;10.20;;
43670;SDS011;29267;50.906;7.248;2023-04-16T12:33:23;16.77;;;10.60;;
43670;SDS011;29267;50.906;7.248;2023-04-16T12:35:49;17.00;;;10.55;;
43670;SDS011;29267;50.906;7.248;2023-04-16T12:38:15;16.17;;;10.95;;
43670;SDS011;29267;50.906;7.248;2023-04-16T12:40:41;14.30;;;9.35;;
43670;SDS011;29267;50.906;7.248;2023-04-16T12:43:07;12.10;;;9.63;;
43670;SDS011;29267;50.906;7.248;2023-04-16T12:45:34;15.55;;;9.43;;
43670;SDS011;29267;50.906;7.248;2023-04-16T12:48:00;16.55;;;10.70;;
43670;SDS011;29267;50.906;7.248;2023-04-16T12:50:25;13.02;;;8.98;;
43670;SDS011;29267;50.906;7.248;2023-04-16T12:52:52;14.43;;;9.10;;
43670;SDS011;29267;50.906;7.248;2023-04-16T12:55:19;17.52;;;9.90;;
43670;SDS011;29267;50.906;7.248;2023-04-16T12:57:45;15.48;;;10.32;;
43670;SDS011;29267;50.906;7.248;2023-04-16T13:00:12;15.63;;;9.80;;
43670;SDS011;29267;50.906;7.248;2023-04-16T13:02:38;20.67;;;12.73;;
43670;SDS011;29267;50.906;7.248;2023-04-16T13:05:05;13.88;;;9.63;;
43670;SDS011;29267;50.906;7.248;2023-04-16T13:07:31;13.48;;;8.82;;
43670;SDS011;29267;50.906;7.248;2023-04-16T13:09:58;16.75;;;10.70;;
43670;SDS011;29267;50.906;7.248;2023-04-16T13:12:24;16.25;;;10.50;;
43670;SDS011;29267;50.906;7.248;2023-04-16T13:14:51;13.60;;;9.65;;
43670;SDS011;29267;50.906;7.248;2023-04-16T13:17:16;16.20;;;9.40;;
43670;SDS011;29267;50.906;7.248;2023-04-16T13:19:42;18.67;;;9.80;;
43670;SDS011;29267;50.906;7.248;2023-04-16T13:22:07;16.02;;;9.48;;
43670;SDS011;29267;50.906;7.248;2023-04-16T13:24:33;15.70;;;10.10;;
43670;SDS011;29267;50.906;7.248;2023-04-16T13:26:59;15.68;;;10.18;;
43670;SDS011;29267;50.906;7.248;2023-04-16T13:29:24;16.27;;;10.02;;
43670;SDS011;29267;50.906;7.248;2023-04-16T13:31:50;13.82;;;8.93;;
43670;SDS011;29267;50.906;7.248;2023-04-16T13:34:16;16.15;;;9.07;;
43670;SDS011;29267;50.906;7.248;2023-04-16T13:36:41;13.68;;;8.85;;
43670;SDS011;29267;50.906;7.248;2023-04-16T13:39:07;14.80;;;9.85;;
43670;SDS011;29267;50.906;7.248;2023-04-16T13:41:38;14.75;;;9.25;;
43670;SDS011;29267;50.906;7.248;2023-04-16T13:44:04;14.30;;;9.18;;
43670;SDS011;29267;50.906;7.248;2023-04-16T13:46:30;13.98;;;8.63;;
43670;SDS011;29267;50.906;7.248;2023-04-16T13:48:56;13.00;;;8.77;;
43670;SDS011;29267;50.906;7.248;2023-04-16T13:51:23;16.77;;;9.98;;
43670;SDS011;29267;50.906;7.248;2023-04-16T13:53:49;13.25;;;9.43;;
43670;SDS011;29267;50.906;7.248;2023-04-16T13:56:14;16.67;;;8.73;;
43670;SDS011;29267;50.906;7.248;2023-04-16T13:58:40;14.57;;;8.38;;
43670;SDS011;29267;50.906;7.248;2023-04-16T14:01:06;13.30;;;8.32;;
43670;SDS011;29267;50.906;7.248;2023-04-16T14:03:32;13.05;;;8.43;;
43670;SDS011;29267;50.906;7.248;2023-04-16T14:06:00;15.65;;;9.10;;
43670;SDS011;29267;50.906;7.248;2023-04-16T14:08:29;16.73;;;9.70;;
43670;SDS011;29267;50.906;7.248;2023-04-16T14:10:55;15.48;;;8.30;;
43670;SDS011;29267;50.906;7.248;2023-04-16T14:13:22;13.85;;;8.88;;
43670;SDS011;29267;50.906;7.248;2023-04-16T14:15:48;15.18;;;8.10;;
43670;SDS011;29267;50.906;7.248;2023-04-16T14:18:14;11.77;;;8.27;;
43670;SDS011;29267;50.906;7.248;2023-04-16T14:20:40;14.23;;;8.10;;
43670;SDS011;29267;50.906;7.248;2023-04-16T14:23:05;18.35;;;9.63;;
43670;SDS011;29267;50.906;7.248;2023-04-16T14:25:31;13.93;;;9.20;;
43670;SDS011;29267;50.906;7.248;2023-04-16T14:27:58;14.38;;;8.48;;
43670;SDS011;29267;50.906;7.248;2023-04-16T14:30:24;14.18;;;8.93;;
43670;SDS011;29267;50.906;7.248;2023-04-16T14:32:50;15.93;;;8.63;;
43670;SDS011;29267;50.906;7.248;2023-04-16T14:35:16;12.18;;;8.50;;
43670;SDS011;29267;50.906;7.248;2023-04-16T14:37:42;15.63;;;9.85;;